Zanjan, Iran

2:55 PM IRST on September 30, 2014 (GMT +0330)
Zanjan | Change Station
CLOSE
Current Station
Airport
Location: Zanjan,
Elevation: 5381 ft
Nearby Weather Stations

Elev 5381 ft 36.77 °N, 48.36 °E | Updated 1 hour ago

Partly Cloudy
Partly Cloudy
81 °F
Feels Like 81 °F
N
14
Wind Variable Wind from South

Today
High -- | Low -- °F
--% Chance of Precip.
Yesterday
High -- | Low -- °F
Precip. -- in
6:10 AM 6:01 PM
Waxing Crescent, 36% visible
Pressure 30.06 in
Visibility 5.0 miles
Clouds Few 3000 ft
Dew Point 37 °F
Humidity 21%
Rainfall 0.00 in
Snow Depth Not available.
UV 6 out of 12
Pollen Not available.
Air Quality Not available.
Flu Activity Not available.
METAR OITZ 301000Z 19012KT 8000 FEW030 27/03 Q1018

More Conditions Fewer Conditions

Pressure 30.06 in
Visibility 5.0 miles
Clouds Few 3000 ft
Dew Point 37 °F
Humidity 21%
Rainfall 0.00 in
Snow Depth Not available.
UV 6 out of 12
Pollen Not available.
Air Quality Not available.
Flu Activity Not available.
METAR OITZ 301000Z 19012KT 8000 FEW030 27/03 Q1018

More Conditions Fewer Conditions

10-Day Weather Forecast

Almanac

Astronomy

Sep. 30, 2014 Rise Set
Actual Time 6:10 AM IRST 6:01 PM IRST
Civil Twilight 5:44 AM IRST 6:27 PM IRST
Nautical Twilight 5:14 AM IRST 6:57 PM IRST
Astronomical Twilight 4:44 AM IRST 7:27 PM IRST
Moon 11:50 AM IRST 10:16 PM IRST
Length of Visible Light 12h 42m
Length of Day
11h 51m
Tomorrow will be 2m 19s shorter.
Waxing Crescent, 36% of the Moon is Illuminated
Today
Waxing Crescent
Oct 1
First Quarter
Oct 8
Full
Oct 15
Last Quarter
Oct 23
New

Yesterday's Extremes

Country Highs Country Lows

Community

WunderPhotos

Upload Photos

1,757,617 photos uploaded!

WunderBlogs® & News

Nearby

Snow Depth

Not available.

Earthquake Activity

City Distance Mag. Time & Date
No recent earthquake activity has been reported nearby.
Minimum magnitude displayed is 2.5.

Coastal Water Temperatures

Place Temperature
No Stations Reporting

Nearby Weather Stations